sensor_id;sensor_type;location;lat;lon;timestamp;temperature;humidity
42683;DHT22;28293;50.930;3.464;2024-02-26T00:00:29;7.50;92.10
42683;DHT22;28293;50.930;3.464;2024-02-26T00:02:55;7.50;92.30
42683;DHT22;28293;50.930;3.464;2024-02-26T00:05:21;7.40;92.40
42683;DHT22;28293;50.930;3.464;2024-02-26T00:07:47;7.40;92.40
42683;DHT22;28293;50.930;3.464;2024-02-26T00:10:13;7.40;92.60
42683;DHT22;28293;50.930;3.464;2024-02-26T00:12:39;7.30;92.90
42683;DHT22;28293;50.930;3.464;2024-02-26T00:15:06;7.30;93.00
42683;DHT22;28293;50.930;3.464;2024-02-26T00:17:32;7.30;93.00
42683;DHT22;28293;50.930;3.464;2024-02-26T00:19:58;7.20;93.10
42683;DHT22;28293;50.930;3.464;2024-02-26T00:22:24;7.20;93.20
42683;DHT22;28293;50.930;3.464;2024-02-26T00:24:49;7.20;93.30
42683;DHT22;28293;50.930;3.464;2024-02-26T00:27:15;7.20;93.50
42683;DHT22;28293;50.930;3.464;2024-02-26T00:29:40;7.10;93.50
42683;DHT22;28293;50.930;3.464;2024-02-26T00:32:06;7.20;93.50
42683;DHT22;28293;50.930;3.464;2024-02-26T00:34:32;7.20;93.40
42683;DHT22;28293;50.930;3.464;2024-02-26T00:36:58;7.20;93.30
42683;DHT22;28293;50.930;3.464;2024-02-26T00:39:23;7.20;93.50
42683;DHT22;28293;50.930;3.464;2024-02-26T00:41:49;7.20;93.70
42683;DHT22;28293;50.930;3.464;2024-02-26T00:44:17;7.20;93.50
42683;DHT22;28293;50.930;3.464;2024-02-26T00:46:42;7.20;93.70
42683;DHT22;28293;50.930;3.464;2024-02-26T00:49:08;7.20;93.60
42683;DHT22;28293;50.930;3.464;2024-02-26T00:51:33;7.20;93.80
42683;DHT22;28293;50.930;3.464;2024-02-26T00:53:59;7.20;93.80
42683;DHT22;28293;50.930;3.464;2024-02-26T00:56:25;7.10;93.80
42683;DHT22;28293;50.930;3.464;2024-02-26T00:58:50;7.20;93.80
42683;DHT22;28293;50.930;3.464;2024-02-26T01:01:17;7.20;93.80
42683;DHT22;28293;50.930;3.464;2024-02-26T01:03:42;7.10;93.80
42683;DHT22;28293;50.930;3.464;2024-02-26T01:06:08;7.10;94.00
42683;DHT22;28293;50.930;3.464;2024-02-26T01:08:35;7.10;94.00
42683;DHT22;28293;50.930;3.464;2024-02-26T01:11:01;7.10;94.00
42683;DHT22;28293;50.930;3.464;2024-02-26T01:13:27;7.10;94.20
42683;DHT22;28293;50.930;3.464;2024-02-26T01:15:53;7.10;94.30
42683;DHT22;28293;50.930;3.464;2024-02-26T01:18:18;7.10;94.30
42683;DHT22;28293;50.930;3.464;2024-02-26T01:20:44;7.10;94.40
42683;DHT22;28293;50.930;3.464;2024-02-26T01:23:10;7.10;94.50
42683;DHT22;28293;50.930;3.464;2024-02-26T01:25:35;7.10;94.60
42683;DHT22;28293;50.930;3.464;2024-02-26T01:28:02;7.10;94.60
42683;DHT22;28293;50.930;3.464;2024-02-26T01:30:28;7.10;94.70
42683;DHT22;28293;50.930;3.464;2024-02-26T01:32:54;7.10;94.70
42683;DHT22;28293;50.930;3.464;2024-02-26T01:35:19;7.00;94.60
42683;DHT22;28293;50.930;3.464;2024-02-26T01:37:45;7.00;94.80
42683;DHT22;28293;50.930;3.464;2024-02-26T01:40:11;7.00;94.80
42683;DHT22;28293;50.930;3.464;2024-02-26T01:42:40;7.00;94.70
42683;DHT22;28293;50.930;3.464;2024-02-26T01:45:14;7.00;94.70
42683;DHT22;28293;50.930;3.464;2024-02-26T01:47:41;7.00;94.80
42683;DHT22;28293;50.930;3.464;2024-02-26T01:50:08;7.00;94.70
42683;DHT22;28293;50.930;3.464;2024-02-26T01:52:34;7.00;94.70
42683;DHT22;28293;50.930;3.464;2024-02-26T01:54:59;6.90;94.70
42683;DHT22;28293;50.930;3.464;2024-02-26T01:57:27;6.90;94.70
42683;DHT22;28293;50.930;3.464;2024-02-26T01:59:53;6.90;94.70
42683;DHT22;28293;50.930;3.464;2024-02-26T02:02:19;6.90;94.80
42683;DHT22;28293;50.930;3.464;2024-02-26T02:04:46;6.90;94.80
42683;DHT22;28293;50.930;3.464;2024-02-26T02:07:12;7.00;94.70
42683;DHT22;28293;50.930;3.464;2024-02-26T02:09:38;6.90;94.60
42683;DHT22;28293;50.930;3.464;2024-02-26T02:12:04;6.90;94.60
42683;DHT22;28293;50.930;3.464;2024-02-26T02:14:31;6.90;94.60
42683;DHT22;28293;50.930;3.464;2024-02-26T02:16:57;6.90;94.70
42683;DHT22;28293;50.930;3.464;2024-02-26T02:19:22;6.90;94.80
42683;DHT22;28293;50.930;3.464;2024-02-26T02:21:48;6.90;94.90
42683;DHT22;28293;50.930;3.464;2024-02-26T02:24:13;6.90;95.00
42683;DHT22;28293;50.930;3.464;2024-02-26T02:26:39;7.00;95.00
42683;DHT22;28293;50.930;3.464;2024-02-26T02:29:06;7.00;94.90
42683;DHT22;28293;50.930;3.464;2024-02-26T02:31:32;7.00;94.90
42683;DHT22;28293;50.930;3.464;2024-02-26T02:33:58;6.90;94.70
42683;DHT22;28293;50.930;3.464;2024-02-26T02:36:23;6.90;94.90
42683;DHT22;28293;50.930;3.464;2024-02-26T02:38:50;6.80;94.90
42683;DHT22;28293;50.930;3.464;2024-02-26T02:41:16;6.80;95.20
42683;DHT22;28293;50.930;3.464;2024-02-26T02:43:41;6.70;95.00
42683;DHT22;28293;50.930;3.464;2024-02-26T02:46:07;6.70;94.90
42683;DHT22;28293;50.930;3.464;2024-02-26T02:48:32;6.70;94.90
42683;DHT22;28293;50.930;3.464;2024-02-26T02:50:58;6.60;95.00
42683;DHT22;28293;50.930;3.464;2024-02-26T02:53:24;6.70;95.00
42683;DHT22;28293;50.930;3.464;2024-02-26T02:55:49;6.70;95.00
42683;DHT22;28293;50.930;3.464;2024-02-26T02:58:15;6.70;94.60
42683;DHT22;28293;50.930;3.464;2024-02-26T03:00:41;6.70;94.40
42683;DHT22;28293;50.930;3.464;2024-02-26T03:03:06;6.60;94.40
42683;DHT22;28293;50.930;3.464;2024-02-26T03:05:32;6.70;94.60
42683;DHT22;28293;50.930;3.464;2024-02-26T03:07:58;6.70;94.60
42683;DHT22;28293;50.930;3.464;2024-02-26T03:10:23;6.70;94.60
42683;DHT22;28293;50.930;3.464;2024-02-26T03:12:49;6.70;94.30
42683;DHT22;28293;50.930;3.464;2024-02-26T03:15:15;6.70;94.50
42683;DHT22;28293;50.930;3.464;2024-02-26T03:17:41;6.70;94.70
42683;DHT22;28293;50.930;3.464;2024-02-26T03:20:08;6.70;94.80
42683;DHT22;28293;50.930;3.464;2024-02-26T03:22:35;6.80;94.80
42683;DHT22;28293;50.930;3.464;2024-02-26T03:25:01;6.70;94.40
42683;DHT22;28293;50.930;3.464;2024-02-26T03:27:26;6.70;94.50
42683;DHT22;28293;50.930;3.464;2024-02-26T03:29:52;6.70;94.70
42683;DHT22;28293;50.930;3.464;2024-02-26T03:32:18;6.60;94.60
42683;DHT22;28293;50.930;3.464;2024-02-26T03:34:44;6.60;94.80
42683;DHT22;28293;50.930;3.464;2024-02-26T03:37:09;6.70;94.80
42683;DHT22;28293;50.930;3.464;2024-02-26T03:39:36;6.60;95.00
42683;DHT22;28293;50.930;3.464;2024-02-26T03:42:02;6.60;95.20
42683;DHT22;28293;50.930;3.464;2024-02-26T03:44:28;6.60;95.30
42683;DHT22;28293;50.930;3.464;2024-02-26T03:46:54;6.60;95.40
42683;DHT22;28293;50.930;3.464;2024-02-26T03:49:19;6.60;95.30
42683;DHT22;28293;50.930;3.464;2024-02-26T03:51:45;6.60;95.30
42683;DHT22;28293;50.930;3.464;2024-02-26T03:54:10;6.60;95.40
42683;DHT22;28293;50.930;3.464;2024-02-26T03:56:36;6.60;95.50
42683;DHT22;28293;50.930;3.464;2024-02-26T03:59:01;6.60;95.60
42683;DHT22;28293;50.930;3.464;2024-02-26T04:01:28;6.60;95.50
42683;DHT22;28293;50.930;3.464;2024-02-26T04:03:54;6.50;95.40
42683;DHT22;28293;50.930;3.464;2024-02-26T04:06:20;6.50;95.40
42683;DHT22;28293;50.930;3.464;2024-02-26T04:08:47;6.50;95.60
42683;DHT22;28293;50.930;3.464;2024-02-26T04:11:13;6.60;95.50
42683;DHT22;28293;50.930;3.464;2024-02-26T04:13:38;6.50;95.70
42683;DHT22;28293;50.930;3.464;2024-02-26T04:16:05;6.50;95.90
42683;DHT22;28293;50.930;3.464;2024-02-26T04:18:32;6.50;95.80
42683;DHT22;28293;50.930;3.464;2024-02-26T04:20:57;6.50;95.90
42683;DHT22;28293;50.930;3.464;2024-02-26T04:23:23;6.50;96.00
42683;DHT22;28293;50.930;3.464;2024-02-26T04:25:49;6.50;95.90
42683;DHT22;28293;50.930;3.464;2024-02-26T04:28:14;6.40;95.90
42683;DHT22;28293;50.930;3.464;2024-02-26T04:30:41;6.40;96.00
42683;DHT22;28293;50.930;3.464;2024-02-26T04:33:07;6.30;96.20
42683;DHT22;28293;50.930;3.464;2024-02-26T04:35:32;6.40;96.20
42683;DHT22;28293;50.930;3.464;2024-02-26T04:37:58;6.30;96.10
42683;DHT22;28293;50.930;3.464;2024-02-26T04:40:24;6.30;96.20
42683;DHT22;28293;50.930;3.464;2024-02-26T04:42:49;6.40;96.10
42683;DHT22;28293;50.930;3.464;2024-02-26T04:45:15;6.40;96.00
42683;DHT22;28293;50.930;3.464;2024-02-26T04:47:41;6.40;96.00
42683;DHT22;28293;50.930;3.464;2024-02-26T04:50:07;6.40;96.10
42683;DHT22;28293;50.930;3.464;2024-02-26T04:52:33;6.40;96.10
42683;DHT22;28293;50.930;3.464;2024-02-26T04:54:58;6.40;96.10
42683;DHT22;28293;50.930;3.464;2024-02-26T04:57:26;6.30;96.10
42683;DHT22;28293;50.930;3.464;2024-02-26T04:59:52;6.30;96.00
42683;DHT22;28293;50.930;3.464;2024-02-26T05:02:17;6.40;96.00
42683;DHT22;28293;50.930;3.464;2024-02-26T05:04:43;6.40;95.80
42683;DHT22;28293;50.930;3.464;2024-02-26T05:07:09;6.40;95.80
42683;DHT22;28293;50.930;3.464;2024-02-26T05:09:34;6.40;95.70
42683;DHT22;28293;50.930;3.464;2024-02-26T05:12:00;6.40;95.60
42683;DHT22;28293;50.930;3.464;2024-02-26T05:14:26;6.40;95.60
42683;DHT22;28293;50.930;3.464;2024-02-26T05:16:52;6.40;95.60
42683;DHT22;28293;50.930;3.464;2024-02-26T05:19:17;6.40;95.50
42683;DHT22;28293;50.930;3.464;2024-02-26T05:21:43;6.50;95.50
42683;DHT22;28293;50.930;3.464;2024-02-26T05:24:10;6.50;95.50
42683;DHT22;28293;50.930;3.464;2024-02-26T05:26:35;6.50;95.60
42683;DHT22;28293;50.930;3.464;2024-02-26T05:29:01;6.50;95.60
42683;DHT22;28293;50.930;3.464;2024-02-26T05:31:27;6.50;95.60
42683;DHT22;28293;50.930;3.464;2024-02-26T05:33:54;6.50;95.70
42683;DHT22;28293;50.930;3.464;2024-02-26T05:36:23;6.50;95.80
42683;DHT22;28293;50.930;3.464;2024-02-26T05:38:49;6.50;95.80
42683;DHT22;28293;50.930;3.464;2024-02-26T05:41:18;6.50;95.80
42683;DHT22;28293;50.930;3.464;2024-02-26T05:43:49;6.50;95.80
42683;DHT22;28293;50.930;3.464;2024-02-26T05:46:17;6.50;96.00
42683;DHT22;28293;50.930;3.464;2024-02-26T05:48:44;6.50;95.90
42683;DHT22;28293;50.930;3.464;2024-02-26T05:51:09;6.50;95.90
42683;DHT22;28293;50.930;3.464;2024-02-26T05:53:35;6.50;96.10
42683;DHT22;28293;50.930;3.464;2024-02-26T05:56:01;6.50;96.10
42683;DHT22;28293;50.930;3.464;2024-02-26T05:58:26;6.50;96.10
42683;DHT22;28293;50.930;3.464;2024-02-26T06:00:52;6.40;96.10
42683;DHT22;28293;50.930;3.464;2024-02-26T06:03:17;6.40;96.00
42683;DHT22;28293;50.930;3.464;2024-02-26T06:05:43;6.50;95.90
42683;DHT22;28293;50.930;3.464;2024-02-26T06:08:09;6.50;96.00
42683;DHT22;28293;50.930;3.464;2024-02-26T06:10:34;6.50;95.90
42683;DHT22;28293;50.930;3.464;2024-02-26T06:13:00;6.50;95.80
42683;DHT22;28293;50.930;3.464;2024-02-26T06:15:26;6.50;95.90
42683;DHT22;28293;50.930;3.464;2024-02-26T06:17:51;6.50;95.90
42683;DHT22;28293;50.930;3.464;2024-02-26T06:20:17;6.40;95.80
42683;DHT22;28293;50.930;3.464;2024-02-26T06:22:42;6.50;95.90
42683;DHT22;28293;50.930;3.464;2024-02-26T06:25:08;6.40;96.00
42683;DHT22;28293;50.930;3.464;2024-02-26T06:27:34;6.40;96.00
42683;DHT22;28293;50.930;3.464;2024-02-26T06:30:00;6.40;96.00
42683;DHT22;28293;50.930;3.464;2024-02-26T06:32:26;6.40;95.80
42683;DHT22;28293;50.930;3.464;2024-02-26T06:34:53;6.40;95.80
42683;DHT22;28293;50.930;3.464;2024-02-26T06:37:19;6.40;95.90
42683;DHT22;28293;50.930;3.464;2024-02-26T06:39:44;6.40;96.00
42683;DHT22;28293;50.930;3.464;2024-02-26T06:42:10;6.40;96.10
42683;DHT22;28293;50.930;3.464;2024-02-26T06:44:35;6.30;96.00
42683;DHT22;28293;50.930;3.464;2024-02-26T06:47:01;6.30;96.10
42683;DHT22;28293;50.930;3.464;2024-02-26T06:49:28;6.40;96.20
42683;DHT22;28293;50.930;3.464;2024-02-26T06:51:54;6.40;95.90
42683;DHT22;28293;50.930;3.464;2024-02-26T06:54:20;6.40;96.00
42683;DHT22;28293;50.930;3.464;2024-02-26T06:56:45;6.30;95.90
42683;DHT22;28293;50.930;3.464;2024-02-26T06:59:11;6.30;96.00
42683;DHT22;28293;50.930;3.464;2024-02-26T07:01:37;6.30;96.00
42683;DHT22;28293;50.930;3.464;2024-02-26T07:04:02;6.30;96.00
42683;DHT22;28293;50.930;3.464;2024-02-26T07:06:28;6.30;96.00
42683;DHT22;28293;50.930;3.464;2024-02-26T07:08:54;6.30;96.10
42683;DHT22;28293;50.930;3.464;2024-02-26T07:11:19;6.30;96.00
42683;DHT22;28293;50.930;3.464;2024-02-26T07:13:46;6.30;95.90
42683;DHT22;28293;50.930;3.464;2024-02-26T07:16:12;6.20;95.90
42683;DHT22;28293;50.930;3.464;2024-02-26T07:18:40;6.30;96.10
42683;DHT22;28293;50.930;3.464;2024-02-26T07:21:06;6.30;95.90
42683;DHT22;28293;50.930;3.464;2024-02-26T07:23:32;6.30;95.70
42683;DHT22;28293;50.930;3.464;2024-02-26T07:25:57;6.20;95.70
42683;DHT22;28293;50.930;3.464;2024-02-26T07:28:24;6.20;95.60
42683;DHT22;28293;50.930;3.464;2024-02-26T07:30:50;6.30;95.60
42683;DHT22;28293;50.930;3.464;2024-02-26T07:33:15;6.20;95.50
42683;DHT22;28293;50.930;3.464;2024-02-26T07:35:41;6.30;95.60
42683;DHT22;28293;50.930;3.464;2024-02-26T07:38:07;6.20;95.20
42683;DHT22;28293;50.930;3.464;2024-02-26T07:40:32;6.30;95.20
42683;DHT22;28293;50.930;3.464;2024-02-26T07:42:58;6.20;95.20
42683;DHT22;28293;50.930;3.464;2024-02-26T07:45:24;6.20;95.10
42683;DHT22;28293;50.930;3.464;2024-02-26T07:47:49;6.20;95.10
42683;DHT22;28293;50.930;3.464;2024-02-26T07:50:16;6.20;95.10
42683;DHT22;28293;50.930;3.464;2024-02-26T07:52:42;6.30;95.00
42683;DHT22;28293;50.930;3.464;2024-02-26T07:55:08;6.20;94.80
42683;DHT22;28293;50.930;3.464;2024-02-26T07:57:34;6.20;94.80
42683;DHT22;28293;50.930;3.464;2024-02-26T08:00:00;6.30;94.70
42683;DHT22;28293;50.930;3.464;2024-02-26T08:02:25;6.30;94.90
42683;DHT22;28293;50.930;3.464;2024-02-26T08:04:51;6.30;95.00
42683;DHT22;28293;50.930;3.464;2024-02-26T08:07:17;6.30;95.00
42683;DHT22;28293;50.930;3.464;2024-02-26T08:09:42;6.20;95.10
42683;DHT22;28293;50.930;3.464;2024-02-26T08:12:08;6.20;95.20
42683;DHT22;28293;50.930;3.464;2024-02-26T08:14:34;6.20;95.20
42683;DHT22;28293;50.930;3.464;2024-02-26T08:16:59;6.20;95.30
42683;DHT22;28293;50.930;3.464;2024-02-26T08:19:26;6.20;95.30
42683;DHT22;28293;50.930;3.464;2024-02-26T08:21:52;6.20;95.10
42683;DHT22;28293;50.930;3.464;2024-02-26T08:24:18;6.20;95.30
42683;DHT22;28293;50.930;3.464;2024-02-26T08:26:43;6.20;95.30
42683;DHT22;28293;50.930;3.464;2024-02-26T08:29:09;6.20;95.40
42683;DHT22;28293;50.930;3.464;2024-02-26T08:31:34;6.20;95.50
42683;DHT22;28293;50.930;3.464;2024-02-26T08:34:03;6.20;95.50
42683;DHT22;28293;50.930;3.464;2024-02-26T08:36:30;6.20;95.60
42683;DHT22;28293;50.930;3.464;2024-02-26T08:38:56;6.20;95.70
42683;DHT22;28293;50.930;3.464;2024-02-26T08:41:22;6.20;95.60
42683;DHT22;28293;50.930;3.464;2024-02-26T08:43:48;6.20;95.70
42683;DHT22;28293;50.930;3.464;2024-02-26T08:46:13;6.10;95.80
42683;DHT22;28293;50.930;3.464;2024-02-26T08:48:39;6.10;95.90
42683;DHT22;28293;50.930;3.464;2024-02-26T08:51:09;6.10;95.90
42683;DHT22;28293;50.930;3.464;2024-02-26T08:53:35;6.10;95.80
42683;DHT22;28293;50.930;3.464;2024-02-26T08:56:01;6.10;95.90
42683;DHT22;28293;50.930;3.464;2024-02-26T08:58:28;6.10;96.00
42683;DHT22;28293;50.930;3.464;2024-02-26T09:00:53;6.10;96.00
42683;DHT22;28293;50.930;3.464;2024-02-26T09:03:19;6.10;96.10
42683;DHT22;28293;50.930;3.464;2024-02-26T09:05:45;6.10;95.90
42683;DHT22;28293;50.930;3.464;2024-02-26T09:08:10;6.10;96.00
42683;DHT22;28293;50.930;3.464;2024-02-26T09:10:36;6.10;96.10
42683;DHT22;28293;50.930;3.464;2024-02-26T09:13:01;6.10;96.20
42683;DHT22;28293;50.930;3.464;2024-02-26T09:15:27;6.10;95.90
42683;DHT22;28293;50.930;3.464;2024-02-26T09:17:53;6.10;96.00
42683;DHT22;28293;50.930;3.464;2024-02-26T09:20:19;6.10;96.30
42683;DHT22;28293;50.930;3.464;2024-02-26T09:22:48;6.20;96.20
42683;DHT22;28293;50.930;3.464;2024-02-26T09:25:14;6.10;96.10
42683;DHT22;28293;50.930;3.464;2024-02-26T09:27:42;6.20;96.10
42683;DHT22;28293;50.930;3.464;2024-02-26T09:30:11;6.20;96.10
42683;DHT22;28293;50.930;3.464;2024-02-26T09:32:38;6.20;96.00
42683;DHT22;28293;50.930;3.464;2024-02-26T09:35:04;6.20;95.80
42683;DHT22;28293;50.930;3.464;2024-02-26T09:37:30;6.20;95.70
42683;DHT22;28293;50.930;3.464;2024-02-26T09:39:56;6.10;95.80
42683;DHT22;28293;50.930;3.464;2024-02-26T09:42:25;6.10;95.70
42683;DHT22;28293;50.930;3.464;2024-02-26T09:44:53;6.10;95.70
42683;DHT22;28293;50.930;3.464;2024-02-26T09:47:21;6.10;95.80
42683;DHT22;28293;50.930;3.464;2024-02-26T09:49:49;6.10;96.10
42683;DHT22;28293;50.930;3.464;2024-02-26T09:52:17;6.10;96.00
42683;DHT22;28293;50.930;3.464;2024-02-26T09:54:47;6.10;96.00
42683;DHT22;28293;50.930;3.464;2024-02-26T09:57:15;6.10;95.70
42683;DHT22;28293;50.930;3.464;2024-02-26T09:59:43;6.10;96.00
42683;DHT22;28293;50.930;3.464;2024-02-26T10:02:13;6.10;96.00
42683;DHT22;28293;50.930;3.464;2024-02-26T10:04:42;6.10;95.90
42683;DHT22;28293;50.930;3.464;2024-02-26T10:07:12;6.10;95.90
42683;DHT22;28293;50.930;3.464;2024-02-26T10:09:39;6.10;95.80
42683;DHT22;28293;50.930;3.464;2024-02-26T10:12:07;6.10;95.80
42683;DHT22;28293;50.930;3.464;2024-02-26T10:14:34;6.10;95.80
42683;DHT22;28293;50.930;3.464;2024-02-26T10:17:02;6.10;95.80
42683;DHT22;28293;50.930;3.464;2024-02-26T10:19:28;6.10;95.70
42683;DHT22;28293;50.930;3.464;2024-02-26T10:21:57;6.10;95.60
42683;DHT22;28293;50.930;3.464;2024-02-26T10:24:25;6.10;95.60
42683;DHT22;28293;50.930;3.464;2024-02-26T10:26:51;6.10;95.70
42683;DHT22;28293;50.930;3.464;2024-02-26T10:29:18;6.10;95.70
42683;DHT22;28293;50.930;3.464;2024-02-26T10:31:44;6.10;95.80
42683;DHT22;28293;50.930;3.464;2024-02-26T10:34:10;6.10;95.50
42683;DHT22;28293;50.930;3.464;2024-02-26T10:36:36;6.10;95.30
42683;DHT22;28293;50.930;3.464;2024-02-26T10:39:05;6.10;95.30
42683;DHT22;28293;50.930;3.464;2024-02-26T10:41:32;6.10;95.30
42683;DHT22;28293;50.930;3.464;2024-02-26T10:43:58;6.10;95.20
42683;DHT22;28293;50.930;3.464;2024-02-26T10:46:25;6.10;95.10
42683;DHT22;28293;50.930;3.464;2024-02-26T10:48:52;6.10;95.40
42683;DHT22;28293;50.930;3.464;2024-02-26T10:51:28;6.10;95.10
42683;DHT22;28293;50.930;3.464;2024-02-26T10:53:58;6.10;95.10
42683;DHT22;28293;50.930;3.464;2024-02-26T10:56:25;6.10;95.00
42683;DHT22;28293;50.930;3.464;2024-02-26T10:58:53;6.10;95.10
42683;DHT22;28293;50.930;3.464;2024-02-26T11:01:19;6.10;95.00
42683;DHT22;28293;50.930;3.464;2024-02-26T11:03:50;6.10;95.00
42683;DHT22;28293;50.930;3.464;2024-02-26T11:06:16;6.20;95.20
42683;DHT22;28293;50.930;3.464;2024-02-26T11:08:43;6.30;95.50
42683;DHT22;28293;50.930;3.464;2024-02-26T11:11:09;6.20;95.50
42683;DHT22;28293;50.930;3.464;2024-02-26T11:13:36;6.20;95.60
42683;DHT22;28293;50.930;3.464;2024-02-26T11:16:05;6.20;95.40
42683;DHT22;28293;50.930;3.464;2024-02-26T11:18:32;6.20;95.50
42683;DHT22;28293;50.930;3.464;2024-02-26T11:20:59;6.20;95.70
42683;DHT22;28293;50.930;3.464;2024-02-26T11:23:26;6.10;95.40
42683;DHT22;28293;50.930;3.464;2024-02-26T11:25:53;6.10;95.50
42683;DHT22;28293;50.930;3.464;2024-02-26T11:28:21;6.20;95.50
42683;DHT22;28293;50.930;3.464;2024-02-26T11:30:48;6.10;95.50
42683;DHT22;28293;50.930;3.464;2024-02-26T11:33:15;6.20;95.60
42683;DHT22;28293;50.930;3.464;2024-02-26T11:35:41;6.20;95.90
42683;DHT22;28293;50.930;3.464;2024-02-26T11:38:07;6.20;95.70
42683;DHT22;28293;50.930;3.464;2024-02-26T11:40:38;6.20;95.60
42683;DHT22;28293;50.930;3.464;2024-02-26T11:43:07;6.20;95.80
42683;DHT22;28293;50.930;3.464;2024-02-26T11:48:12;6.10;95.40
42683;DHT22;28293;50.930;3.464;2024-02-26T11:50:42;6.10;95.50
42683;DHT22;28293;50.930;3.464;2024-02-26T11:53:31;6.00;95.70
42683;DHT22;28293;50.930;3.464;2024-02-26T11:59:10;6.10;95.90
42683;DHT22;28293;50.930;3.464;2024-02-26T12:04:05;6.00;95.90
42683;DHT22;28293;50.930;3.464;2024-02-26T12:06:44;6.10;95.90
42683;DHT22;28293;50.930;3.464;2024-02-26T12:09:11;6.10;96.00
42683;DHT22;28293;50.930;3.464;2024-02-26T12:11:40;6.20;96.10
42683;DHT22;28293;50.930;3.464;2024-02-26T12:14:08;6.10;95.90
42683;DHT22;28293;50.930;3.464;2024-02-26T12:16:35;6.10;95.70
42683;DHT22;28293;50.930;3.464;2024-02-26T12:19:04;6.00;95.50
42683;DHT22;28293;50.930;3.464;2024-02-26T12:21:33;6.10;95.70
42683;DHT22;28293;50.930;3.464;2024-02-26T12:24:14;6.10;95.60
42683;DHT22;28293;50.930;3.464;2024-02-26T12:26:41;6.10;95.50
42683;DHT22;28293;50.930;3.464;2024-02-26T12:29:07;6.10;95.50
42683;DHT22;28293;50.930;3.464;2024-02-26T12:31:33;6.10;95.70
42683;DHT22;28293;50.930;3.464;2024-02-26T12:34:00;6.20;95.50
42683;DHT22;28293;50.930;3.464;2024-02-26T12:36:26;6.20;95.40
42683;DHT22;28293;50.930;3.464;2024-02-26T12:38:52;6.20;95.50
42683;DHT22;28293;50.930;3.464;2024-02-26T12:41:18;6.20;95.50
42683;DHT22;28293;50.930;3.464;2024-02-26T12:43:44;6.20;95.30
42683;DHT22;28293;50.930;3.464;2024-02-26T12:46:11;6.10;95.10
42683;DHT22;28293;50.930;3.464;2024-02-26T12:48:38;6.20;95.40
42683;DHT22;28293;50.930;3.464;2024-02-26T12:51:05;6.20;95.50
42683;DHT22;28293;50.930;3.464;2024-02-26T12:53:31;6.20;95.50
42683;DHT22;28293;50.930;3.464;2024-02-26T12:55:57;6.10;95.20
42683;DHT22;28293;50.930;3.464;2024-02-26T12:58:24;6.20;95.40
42683;DHT22;28293;50.930;3.464;2024-02-26T13:00:54;6.20;95.40
42683;DHT22;28293;50.930;3.464;2024-02-26T13:03:21;6.20;95.40
42683;DHT22;28293;50.930;3.464;2024-02-26T13:05:48;6.20;95.40
42683;DHT22;28293;50.930;3.464;2024-02-26T13:08:20;6.20;95.30
42683;DHT22;28293;50.930;3.464;2024-02-26T13:10:47;6.20;95.20
42683;DHT22;28293;50.930;3.464;2024-02-26T13:13:17;6.20;95.30
42683;DHT22;28293;50.930;3.464;2024-02-26T13:15:43;6.20;95.20
42683;DHT22;28293;50.930;3.464;2024-02-26T13:18:10;6.20;95.30
42683;DHT22;28293;50.930;3.464;2024-02-26T13:20:36;6.30;95.10
42683;DHT22;28293;50.930;3.464;2024-02-26T13:23:07;6.20;94.90
42683;DHT22;28293;50.930;3.464;2024-02-26T13:25:34;6.30;94.80
42683;DHT22;28293;50.930;3.464;2024-02-26T13:28:15;6.30;95.10
42683;DHT22;28293;50.930;3.464;2024-02-26T13:30:41;6.30;95.10
42683;DHT22;28293;50.930;3.464;2024-02-26T13:33:12;6.20;95.00
42683;DHT22;28293;50.930;3.464;2024-02-26T13:35:38;6.30;94.90
42683;DHT22;28293;50.930;3.464;2024-02-26T13:38:05;6.20;95.00
42683;DHT22;28293;50.930;3.464;2024-02-26T13:40:35;6.30;95.20
42683;DHT22;28293;50.930;3.464;2024-02-26T13:43:00;6.40;95.30
42683;DHT22;28293;50.930;3.464;2024-02-26T13:45:26;6.40;95.20
42683;DHT22;28293;50.930;3.464;2024-02-26T13:47:53;6.40;95.20
42683;DHT22;28293;50.930;3.464;2024-02-26T13:50:18;6.40;95.20
42683;DHT22;28293;50.930;3.464;2024-02-26T13:52:47;6.40;95.10
42683;DHT22;28293;50.930;3.464;2024-02-26T13:55:18;6.40;95.30
42683;DHT22;28293;50.930;3.464;2024-02-26T13:57:44;6.40;95.40
42683;DHT22;28293;50.930;3.464;2024-02-26T14:00:10;6.50;95.60
42683;DHT22;28293;50.930;3.464;2024-02-26T14:02:36;6.50;95.40
42683;DHT22;28293;50.930;3.464;2024-02-26T14:05:02;6.50;95.30
42683;DHT22;28293;50.930;3.464;2024-02-26T14:07:29;6.50;95.10
42683;DHT22;28293;50.930;3.464;2024-02-26T14:09:57;6.50;95.10
42683;DHT22;28293;50.930;3.464;2024-02-26T14:12:23;6.60;95.10
42683;DHT22;28293;50.930;3.464;2024-02-26T14:14:49;6.50;95.10
42683;DHT22;28293;50.930;3.464;2024-02-26T14:17:14;6.50;95.40
42683;DHT22;28293;50.930;3.464;2024-02-26T14:19:41;6.50;95.50
42683;DHT22;28293;50.930;3.464;2024-02-26T14:22:11;6.50;95.20
42683;DHT22;28293;50.930;3.464;2024-02-26T14:24:37;6.50;95.30
42683;DHT22;28293;50.930;3.464;2024-02-26T14:27:03;6.50;95.40
42683;DHT22;28293;50.930;3.464;2024-02-26T14:29:29;6.50;95.40
42683;DHT22;28293;50.930;3.464;2024-02-26T14:31:56;6.50;95.50
42683;DHT22;28293;50.930;3.464;2024-02-26T14:34:22;6.50;95.30
42683;DHT22;28293;50.930;3.464;2024-02-26T14:36:48;6.50;95.50
42683;DHT22;28293;50.930;3.464;2024-02-26T14:39:14;6.40;95.50
42683;DHT22;28293;50.930;3.464;2024-02-26T14:41:40;6.50;95.80
42683;DHT22;28293;50.930;3.464;2024-02-26T14:44:05;6.40;95.60
42683;DHT22;28293;50.930;3.464;2024-02-26T14:46:31;6.40;95.80
42683;DHT22;28293;50.930;3.464;2024-02-26T14:48:58;6.40;95.80
42683;DHT22;28293;50.930;3.464;2024-02-26T14:51:23;6.40;96.00
42683;DHT22;28293;50.930;3.464;2024-02-26T14:53:49;6.40;95.90
42683;DHT22;28293;50.930;3.464;2024-02-26T14:56:15;6.40;96.00
42683;DHT22;28293;50.930;3.464;2024-02-26T14:58:40;6.40;96.10
42683;DHT22;28293;50.930;3.464;2024-02-26T15:01:06;6.40;96.10
42683;DHT22;28293;50.930;3.464;2024-02-26T15:03:32;6.40;96.00
42683;DHT22;28293;50.930;3.464;2024-02-26T15:05:58;6.40;96.00
42683;DHT22;28293;50.930;3.464;2024-02-26T15:08:24;6.40;96.00
42683;DHT22;28293;50.930;3.464;2024-02-26T15:10:49;6.50;96.10
42683;DHT22;28293;50.930;3.464;2024-02-26T15:13:15;6.40;95.70
42683;DHT22;28293;50.930;3.464;2024-02-26T15:15:41;6.40;95.80
42683;DHT22;28293;50.930;3.464;2024-02-26T15:18:08;6.40;95.60
42683;DHT22;28293;50.930;3.464;2024-02-26T15:20:37;6.40;95.80
42683;DHT22;28293;50.930;3.464;2024-02-26T15:23:04;6.40;95.70
42683;DHT22;28293;50.930;3.464;2024-02-26T15:25:29;6.50;95.70
42683;DHT22;28293;50.930;3.464;2024-02-26T15:27:55;6.50;95.20
42683;DHT22;28293;50.930;3.464;2024-02-26T15:30:21;6.50;95.20
42683;DHT22;28293;50.930;3.464;2024-02-26T15:32:47;6.50;95.20
42683;DHT22;28293;50.930;3.464;2024-02-26T15:35:12;6.60;95.20
42683;DHT22;28293;50.930;3.464;2024-02-26T15:37:38;6.50;95.00
42683;DHT22;28293;50.930;3.464;2024-02-26T15:40:04;6.40;94.80
42683;DHT22;28293;50.930;3.464;2024-02-26T15:42:32;6.50;95.30
42683;DHT22;28293;50.930;3.464;2024-02-26T15:44:58;6.50;95.10
42683;DHT22;28293;50.930;3.464;2024-02-26T15:47:24;6.40;95.30